createdAt,value
2022-08-28T00:00:10.455Z,85.83
2022-08-28T00:02:37.696Z,85.96
2022-08-28T00:05:06.138Z,86.27
2022-08-28T00:07:32.744Z,86.43
2022-08-28T00:09:59.285Z,86.39
2022-08-28T00:12:26.678Z,86.01
2022-08-28T00:14:53.381Z,86.02
2022-08-28T00:17:19.906Z,86.20
2022-08-28T00:19:46.522Z,86.53
2022-08-28T00:22:13.089Z,86.55
2022-08-28T00:24:44.542Z,86.86
2022-08-28T00:27:29.754Z,86.75
2022-08-28T00:29:56.272Z,86.66
2022-08-28T00:32:25.232Z,86.78
2022-08-28T00:34:52.032Z,86.87
2022-08-28T00:37:18.764Z,87.31
2022-08-28T00:39:45.430Z,87.52
2022-08-28T00:42:12.353Z,87.87
2022-08-28T00:44:38.965Z,87.94
2022-08-28T00:47:05.628Z,87.50
2022-08-28T00:49:36.024Z,87.56
2022-08-28T00:52:08.663Z,87.55
2022-08-28T00:54:58.430Z,87.62
2022-08-28T00:57:36.231Z,87.62
2022-08-28T01:00:11.709Z,87.76
2022-08-28T01:02:38.324Z,88.19
2022-08-28T01:05:09.549Z,88.31
2022-08-28T01:07:37.295Z,88.43
2022-08-28T01:10:07.960Z,88.55
2022-08-28T01:12:35.781Z,88.98
2022-08-28T01:15:11.866Z,89.20
2022-08-28T01:17:44.357Z,89.14
2022-08-28T01:20:15.123Z,89.15
2022-08-28T01:22:54.052Z,88.97
2022-08-28T01:25:23.476Z,88.98
2022-08-28T01:27:51.202Z,88.48
2022-08-28T01:30:21.572Z,88.44
2022-08-28T01:32:51.854Z,88.74
2022-08-28T01:35:21.625Z,88.96
2022-08-28T01:37:49.218Z,89.01
2022-08-28T01:40:23.035Z,88.53
2022-08-28T01:42:50.332Z,88.32
2022-08-28T01:45:20.527Z,88.41
2022-08-28T01:47:47.802Z,89.12
2022-08-28T01:50:20.735Z,89.32
2022-08-28T01:52:47.274Z,89.51
2022-08-28T01:55:14.147Z,89.39
2022-08-28T01:57:49.726Z,88.89
2022-08-28T02:00:17.660Z,88.62
2022-08-28T02:02:44.285Z,88.34
2022-08-28T02:05:11.568Z,88.40
2022-08-28T02:07:38.304Z,88.28
2022-08-28T02:10:07.387Z,88.07
2022-08-28T02:12:34.082Z,87.86
2022-08-28T02:15:00.633Z,88.02
2022-08-28T02:17:27.193Z,88.01
2022-08-28T02:19:53.799Z,87.55
2022-08-28T02:22:20.341Z,88.09
2022-08-28T02:24:46.929Z,87.92
2022-08-28T02:27:13.609Z,87.68
2022-08-28T02:29:40.126Z,87.70
2022-08-28T02:32:06.976Z,87.87
2022-08-28T02:34:34.771Z,88.15
2022-08-28T02:37:01.568Z,88.22
2022-08-28T02:39:28.236Z,88.51
2022-08-28T02:41:54.788Z,89.37
2022-08-28T02:44:21.378Z,89.44
2022-08-28T02:46:47.965Z,89.56
2022-08-28T02:49:14.506Z,89.34
2022-08-28T02:51:41.032Z,89.60
2022-08-28T02:54:07.547Z,89.43
2022-08-28T02:56:34.418Z,89.43
2022-08-28T02:59:01.095Z,89.59
2022-08-28T03:01:27.694Z,89.59
2022-08-28T03:03:54.359Z,89.33
2022-08-28T03:06:21.022Z,89.25
2022-08-28T03:08:47.578Z,89.46
2022-08-28T03:11:14.137Z,90.04
2022-08-28T03:13:41.969Z,90.27
2022-08-28T03:16:08.717Z,90.19
2022-08-28T03:18:35.352Z,90.08
2022-08-28T03:21:02.434Z,89.81
2022-08-28T03:23:30.311Z,89.15
2022-08-28T03:26:03.588Z,89.12
2022-08-28T03:28:33.877Z,89.21
2022-08-28T03:31:01.265Z,89.24
2022-08-28T03:33:28.368Z,89.15
2022-08-28T03:35:55.651Z,89.20
2022-08-28T03:38:22.624Z,89.12
2022-08-28T03:40:52.373Z,89.44
2022-08-28T03:43:22.787Z,89.24
2022-08-28T03:45:58.172Z,88.98
2022-08-28T03:48:30.359Z,88.99
2022-08-28T03:50:57.939Z,89.42
2022-08-28T03:53:27.702Z,89.71
2022-08-28T03:55:55.789Z,90.47
2022-08-28T03:58:23.200Z,90.17
2022-08-28T04:00:51.126Z,90.38
2022-08-28T04:03:18.721Z,90.80
2022-08-28T04:05:46.649Z,90.93
2022-08-28T04:08:16.073Z,90.96
2022-08-28T04:10:46.452Z,91.29
2022-08-28T04:13:14.474Z,91.56
2022-08-28T04:15:41.698Z,91.80
2022-08-28T04:18:09.711Z,92.10
2022-08-28T04:20:36.702Z,92.28
2022-08-28T04:23:04.136Z,92.33
2022-08-28T04:25:31.848Z,93.03
2022-08-28T04:27:58.894Z,92.92
2022-08-28T04:30:25.478Z,92.73
2022-08-28T04:32:51.994Z,93.00
2022-08-28T04:35:18.548Z,93.42
2022-08-28T04:37:45.056Z,94.01
2022-08-28T04:40:13.242Z,93.87
2022-08-28T04:42:40.398Z,94.06
2022-08-28T04:45:07.791Z,94.13
2022-08-28T04:47:38.900Z,94.82
2022-08-28T04:50:07.443Z,94.92
2022-08-28T04:52:34.561Z,94.43
2022-08-28T04:55:01.654Z,94.54
2022-08-28T04:57:28.243Z,94.44
2022-08-28T04:59:54.950Z,94.77
2022-08-28T05:02:21.500Z,95.21
2022-08-28T05:04:49.176Z,95.67
2022-08-28T05:07:15.870Z,96.12
2022-08-28T05:09:42.492Z,96.49
2022-08-28T05:12:09.088Z,96.73
2022-08-28T05:14:36.661Z,96.40
2022-08-28T05:17:03.224Z,96.28
2022-08-28T05:19:29.746Z,96.28
2022-08-28T05:21:56.552Z,96.62
2022-08-28T05:24:23.294Z,96.13
2022-08-28T05:26:50.244Z,96.02
2022-08-28T05:29:17.063Z,95.91
2022-08-28T05:31:43.950Z,96.26
2022-08-28T05:34:10.852Z,96.52
2022-08-28T05:36:38.857Z,96.90
2022-08-28T05:39:08.902Z,96.86
2022-08-28T05:41:36.773Z,96.71
2022-08-28T05:44:07.270Z,96.43
2022-08-28T05:46:36.781Z,96.86
2022-08-28T05:49:07.721Z,97.07
2022-08-28T05:51:36.834Z,97.04
2022-08-28T05:54:04.118Z,97.59
2022-08-28T05:56:34.573Z,97.58
2022-08-28T05:59:03.553Z,97.51
2022-08-28T06:01:32.840Z,97.47
2022-08-28T06:04:03.539Z,97.26
2022-08-28T06:06:34.377Z,97.05
2022-08-28T06:09:04.763Z,96.83
2022-08-28T06:11:31.878Z,97.11
2022-08-28T06:14:01.891Z,97.66
2022-08-28T06:16:31.297Z,97.27
2022-08-28T06:18:58.494Z,96.76
2022-08-28T06:21:25.266Z,95.98
2022-08-28T06:23:51.980Z,96.08
2022-08-28T06:26:18.910Z,96.31
2022-08-28T06:28:45.573Z,95.22
2022-08-28T06:31:25.055Z,94.37
2022-08-28T06:33:54.441Z,93.43
2022-08-28T06:36:21.785Z,91.74
2022-08-28T06:38:48.310Z,90.41
2022-08-28T06:41:15.727Z,88.72
2022-08-28T06:43:42.876Z,87.84
2022-08-28T06:46:09.707Z,86.90
2022-08-28T06:48:39.348Z,86.38
2022-08-28T06:51:09.472Z,88.07
2022-08-28T06:53:37.336Z,89.04
2022-08-28T06:56:11.301Z,86.73
2022-08-28T06:58:43.048Z,85.69
2022-08-28T07:01:27.058Z,86.59
2022-08-28T07:03:55.789Z,86.41
2022-08-28T07:06:23.718Z,83.94
2022-08-28T07:08:51.372Z,84.24
2022-08-28T07:11:26.174Z,84.78
2022-08-28T07:13:53.989Z,84.40
2022-08-28T07:16:23.638Z,83.91
2022-08-28T07:18:51.763Z,83.82
2022-08-28T07:21:18.318Z,83.67
2022-08-28T07:23:46.391Z,82.64
2022-08-28T07:26:16.934Z,82.59
2022-08-28T07:28:45.417Z,81.54
2022-08-28T07:31:15.453Z,79.80
2022-08-28T07:33:43.645Z,77.78
2022-08-28T07:36:16.029Z,75.98
2022-08-28T07:38:56.419Z,75.63
2022-08-28T07:41:27.668Z,74.91
2022-08-28T07:44:13.036Z,74.57
2022-08-28T07:46:40.248Z,74.00
2022-08-28T07:49:07.692Z,73.03
2022-08-28T07:51:34.860Z,72.84
2022-08-28T07:54:03.216Z,72.73
2022-08-28T07:56:30.792Z,73.21
2022-08-28T07:58:58.715Z,74.08
2022-08-28T08:01:28.933Z,74.19
2022-08-28T08:04:01.733Z,74.36
2022-08-28T08:06:34.175Z,73.70
2022-08-28T08:09:02.018Z,74.02
2022-08-28T08:11:32.281Z,74.31
2022-08-28T08:14:05.622Z,74.64
2022-08-28T08:16:40.133Z,74.13
2022-08-28T08:19:10.040Z,73.21
2022-08-28T08:21:37.580Z,73.16
2022-08-28T08:24:04.599Z,73.18
2022-08-28T08:26:31.370Z,73.28
2022-08-28T08:28:59.042Z,73.27
2022-08-28T08:31:29.550Z,73.99
2022-08-28T08:33:58.144Z,73.99
2022-08-28T08:36:26.820Z,73.27
2022-08-28T08:38:59.297Z,72.74
2022-08-28T08:41:48.445Z,73.14
2022-08-28T08:44:28.018Z,72.70
2022-08-28T08:47:19.388Z,73.78
2022-08-28T08:49:57.240Z,76.25
2022-08-28T08:52:42.182Z,77.21
2022-08-28T08:55:34.246Z,79.79
2022-08-28T08:58:16.532Z,79.63
2022-08-28T09:01:20.817Z,81.90
2022-08-28T09:04:10.355Z,81.50
2022-08-28T09:06:50.470Z,81.42
2022-08-28T09:09:18.853Z,81.32
2022-08-28T09:11:57.038Z,81.66
2022-08-28T09:14:33.256Z,82.33
2022-08-28T09:17:00.958Z,82.84
2022-08-28T09:19:27.737Z,83.26
2022-08-28T09:21:54.652Z,84.75
2022-08-28T09:24:22.720Z,84.89
2022-08-28T09:26:56.436Z,85.27
2022-08-28T09:29:47.323Z,86.49
2022-08-28T09:32:33.570Z,87.48
2022-08-28T09:35:06.435Z,87.11
2022-08-28T09:37:35.331Z,87.59
2022-08-28T09:40:23.287Z,88.32
2022-08-28T09:43:28.868Z,88.55
2022-08-28T09:46:16.148Z,90.34
2022-08-28T09:48:45.453Z,92.33
2022-08-28T09:51:26.761Z,92.58
2022-08-28T09:53:56.480Z,92.49
2022-08-28T09:56:34.041Z,92.32
2022-08-28T09:59:06.521Z,93.42
2022-08-28T10:01:49.134Z,95.22
2022-08-28T10:04:15.937Z,95.13
2022-08-28T10:07:10.209Z,95.12
2022-08-28T10:10:06.669Z,95.52
2022-08-28T10:12:38.332Z,94.72
2022-08-28T10:15:04.945Z,93.61
2022-08-28T10:17:59.173Z,94.04
2022-08-28T10:20:45.902Z,92.97
2022-08-28T10:23:21.454Z,92.27
2022-08-28T10:25:58.695Z,92.14
2022-08-28T10:28:49.444Z,92.58
2022-08-28T10:31:57.825Z,91.17
2022-08-28T10:34:31.615Z,92.24
2022-08-28T10:37:40.006Z,92.14
2022-08-28T10:40:16.523Z,91.03
2022-08-28T10:42:48.550Z,91.06
2022-08-28T10:45:24.883Z,90.22
2022-08-28T10:47:57.727Z,89.83
2022-08-28T10:50:34.264Z,89.74
2022-08-28T10:53:07.230Z,89.51
2022-08-28T10:55:39.373Z,89.86
2022-08-28T10:58:24.381Z,90.61
2022-08-28T11:01:06.454Z,91.34
2022-08-28T11:03:40.833Z,91.63
2022-08-28T11:06:16.157Z,90.81
2022-08-28T11:08:52.937Z,90.30
2022-08-28T11:11:44.770Z,90.81
2022-08-28T11:14:25.391Z,91.21
2022-08-28T11:16:54.611Z,91.09
2022-08-28T11:19:43.993Z,90.74
2022-08-28T11:22:30.738Z,91.08
2022-08-28T11:25:12.832Z,91.11
2022-08-28T11:27:40.540Z,91.74
2022-08-28T11:30:10.942Z,91.55
2022-08-28T11:32:37.516Z,91.05
2022-08-28T11:35:10.688Z,89.77
2022-08-28T11:37:43.522Z,90.03
2022-08-28T11:40:17.385Z,90.50
2022-08-28T11:42:48.671Z,89.46
2022-08-28T11:46:01.095Z,89.59
2022-08-28T11:48:33.407Z,90.47
2022-08-28T11:51:18.215Z,89.95
2022-08-28T11:53:57.370Z,89.74
2022-08-28T11:56:48.506Z,90.71
2022-08-28T11:59:34.855Z,91.79
2022-08-28T12:02:33.271Z,91.07
2022-08-28T12:04:59.963Z,89.65
2022-08-28T12:07:35.013Z,89.34
2022-08-28T12:10:05.176Z,89.50
2022-08-28T12:12:47.220Z,91.01
2022-08-28T12:15:41.599Z,90.34
2022-08-28T12:18:11.191Z,89.03
2022-08-28T12:21:07.097Z,88.35
2022-08-28T12:23:37.175Z,88.82
2022-08-28T12:26:09.117Z,87.75
2022-08-28T12:28:49.204Z,87.92
2022-08-28T12:31:46.453Z,88.00
2022-08-28T12:34:50.223Z,86.91
2022-08-28T12:37:31.248Z,83.92
2022-08-28T12:40:20.603Z,85.40
2022-08-28T12:43:00.820Z,85.26
2022-08-28T12:45:42.632Z,85.03
2022-08-28T12:48:44.915Z,82.45
2022-08-28T12:51:22.305Z,80.38
2022-08-28T12:53:52.758Z,79.73
2022-08-28T12:56:21.892Z,79.71
2022-08-28T12:58:49.475Z,79.98
2022-08-28T13:01:30.887Z,79.84
2022-08-28T13:04:04.502Z,79.72
2022-08-28T13:06:36.425Z,79.86
2022-08-28T13:09:18.662Z,79.80
2022-08-28T13:11:49.259Z,79.90
2022-08-28T13:14:43.574Z,80.03
2022-08-28T13:17:12.719Z,79.48
2022-08-28T13:19:40.141Z,79.79
2022-08-28T13:22:28.480Z,77.99
2022-08-28T13:25:03.127Z,77.45
2022-08-28T13:27:30.048Z,76.79
2022-08-28T13:30:16.627Z,75.65
2022-08-28T13:32:55.946Z,75.36
2022-08-28T13:35:22.418Z,74.43
2022-08-28T13:37:54.815Z,74.14
2022-08-28T13:40:56.224Z,73.73
2022-08-28T13:43:18.197Z,74.39
2022-08-28T13:45:48.737Z,74.57
2022-08-28T13:48:19.307Z,74.46
2022-08-28T13:50:49.869Z,73.57
2022-08-28T13:53:19.606Z,73.65
2022-08-28T13:56:00.327Z,73.67
2022-08-28T13:58:28.233Z,73.34
2022-08-28T14:00:55.631Z,72.28
2022-08-28T14:03:38.128Z,70.88
2022-08-28T14:06:11.347Z,70.74
2022-08-28T14:08:39.850Z,71.35
2022-08-28T14:11:07.418Z,70.52
2022-08-28T14:13:34.525Z,70.13
2022-08-28T14:16:05.708Z,69.58
2022-08-28T14:18:32.331Z,69.92
2022-08-28T14:20:59.028Z,69.84
2022-08-28T14:23:25.583Z,69.34
2022-08-28T14:25:52.371Z,69.46
2022-08-28T14:28:19.086Z,69.41
2022-08-28T14:30:50.438Z,69.35
2022-08-28T14:33:20.852Z,68.71
2022-08-28T14:35:49.027Z,68.59
2022-08-28T14:38:16.776Z,68.37
2022-08-28T14:40:44.045Z,67.93
2022-08-28T14:43:13.546Z,67.59
2022-08-28T14:45:48.624Z,67.67
2022-08-28T14:48:18.260Z,66.91
2022-08-28T14:50:48.060Z,66.92
2022-08-28T14:53:15.875Z,66.61
2022-08-28T14:55:49.017Z,65.76
2022-08-28T14:58:17.379Z,65.27
2022-08-28T15:00:46.822Z,64.10
2022-08-28T15:03:14.573Z,64.25
2022-08-28T15:05:42.302Z,64.34
2022-08-28T15:08:10.956Z,64.34
2022-08-28T15:10:39.062Z,64.19
2022-08-28T15:13:07.710Z,63.65
2022-08-28T15:15:39.687Z,63.50
2022-08-28T15:18:07.543Z,63.62
2022-08-28T15:20:42.432Z,63.26
2022-08-28T15:23:09.064Z,62.16
2022-08-28T15:25:35.758Z,62.91
2022-08-28T15:28:02.558Z,63.44
2022-08-28T15:30:29.179Z,63.20
2022-08-28T15:32:55.821Z,65.32
2022-08-28T15:35:22.408Z,66.37
2022-08-28T15:37:49.061Z,68.04
2022-08-28T15:40:34.277Z,70.03
2022-08-28T15:43:00.928Z,71.32
2022-08-28T15:45:27.590Z,73.34
2022-08-28T15:47:54.487Z,75.00
2022-08-28T15:50:21.226Z,75.29
2022-08-28T15:52:48.069Z,74.40
2022-08-28T15:55:14.688Z,73.79
2022-08-28T15:57:41.332Z,74.08
2022-08-28T16:00:10.521Z,74.88
2022-08-28T16:02:37.607Z,75.32
2022-08-28T16:05:04.572Z,75.42
2022-08-28T16:07:31.093Z,75.96
2022-08-28T16:09:57.777Z,76.05
2022-08-28T16:12:25.519Z,76.42
2022-08-28T16:14:52.065Z,76.42
2022-08-28T16:17:19.032Z,76.49
2022-08-28T16:19:46.692Z,76.79
2022-08-28T16:22:16.015Z,76.35
2022-08-28T16:24:43.600Z,76.11
2022-08-28T16:27:14.647Z,76.56
2022-08-28T16:29:42.766Z,76.53
2022-08-28T16:32:09.622Z,77.13
2022-08-28T16:34:38.882Z,77.17
2022-08-28T16:37:06.162Z,77.12
2022-08-28T16:39:35.423Z,77.66
2022-08-28T16:42:02.359Z,76.56
2022-08-28T16:44:28.950Z,77.14
2022-08-28T16:46:55.983Z,77.60
2022-08-28T16:49:23.678Z,78.06
2022-08-28T16:51:50.565Z,77.84
2022-08-28T16:54:21.502Z,77.99
2022-08-28T16:56:48.086Z,77.55
2022-08-28T16:59:17.978Z,78.44
2022-08-28T17:01:44.809Z,78.62
2022-08-28T17:04:12.302Z,76.13
2022-08-28T17:06:40.054Z,75.19
2022-08-28T17:09:06.862Z,75.68
2022-08-28T17:11:33.425Z,76.14
2022-08-28T17:14:00.362Z,75.89
2022-08-28T17:16:31.462Z,75.61
2022-08-28T17:18:59.535Z,76.07
2022-08-28T17:21:44.508Z,76.70
2022-08-28T17:24:14.946Z,76.88
2022-08-28T17:26:42.594Z,76.68
2022-08-28T17:29:09.474Z,77.50
2022-08-28T17:31:36.790Z,77.57
2022-08-28T17:34:03.983Z,77.76
2022-08-28T17:36:33.070Z,77.70
2022-08-28T17:39:03.048Z,77.59
2022-08-28T17:41:29.738Z,77.47
2022-08-28T17:43:56.305Z,77.63
2022-08-28T17:46:22.897Z,77.48
2022-08-28T17:48:54.478Z,77.62
2022-08-28T17:51:42.685Z,77.92
2022-08-28T17:54:18.606Z,77.83
2022-08-28T17:56:46.391Z,78.02
2022-08-28T17:59:13.794Z,78.41
2022-08-28T18:01:42.064Z,78.70
2022-08-28T18:04:09.338Z,78.95
2022-08-28T18:06:36.088Z,79.17
2022-08-28T18:09:03.639Z,79.22
2022-08-28T18:11:30.418Z,79.27
2022-08-28T18:13:57.292Z,79.13
2022-08-28T18:16:27.646Z,79.19
2022-08-28T18:18:57.091Z,79.51
2022-08-28T18:21:23.679Z,79.77
2022-08-28T18:23:50.278Z,80.03
2022-08-28T18:26:17.624Z,80.43
2022-08-28T18:28:44.693Z,80.90
2022-08-28T18:31:11.257Z,82.19
2022-08-28T18:33:37.895Z,82.54
2022-08-28T18:36:07.883Z,82.38
2022-08-28T18:38:35.621Z,81.97
2022-08-28T18:41:04.533Z,82.17
2022-08-28T18:43:31.704Z,82.64
2022-08-28T18:45:59.605Z,82.51
2022-08-28T18:48:26.797Z,82.85
2022-08-28T18:50:53.458Z,82.54
2022-08-28T18:53:22.563Z,82.92
2022-08-28T18:55:52.190Z,82.79
2022-08-28T18:58:19.282Z,83.69
2022-08-28T19:00:45.908Z,84.11
2022-08-28T19:03:12.659Z,84.83
2022-08-28T19:05:40.144Z,84.55
2022-08-28T19:08:06.840Z,84.75
2022-08-28T19:10:35.296Z,85.18
2022-08-28T19:13:03.573Z,85.17
2022-08-28T19:15:30.649Z,84.87
2022-08-28T19:17:58.141Z,85.15
2022-08-28T19:20:26.518Z,84.69
2022-08-28T19:22:53.088Z,85.23
2022-08-28T19:25:28.571Z,85.30
2022-08-28T19:27:59.071Z,85.31
2022-08-28T19:30:27.313Z,85.52
2022-08-28T19:32:53.969Z,85.22
2022-08-28T19:35:24.298Z,85.60
2022-08-28T19:37:52.197Z,85.33
2022-08-28T19:40:20.588Z,85.41
2022-08-28T19:42:49.875Z,85.32
2022-08-28T19:45:17.819Z,85.31
2022-08-28T19:47:44.894Z,86.05
2022-08-28T19:50:13.997Z,85.75
2022-08-28T19:52:43.094Z,85.82
2022-08-28T19:55:14.318Z,86.07
2022-08-28T19:57:40.891Z,85.91
2022-08-28T20:00:08.313Z,85.80
2022-08-28T20:02:34.971Z,86.24
2022-08-28T20:05:01.648Z,86.07
2022-08-28T20:07:28.216Z,85.64
2022-08-28T20:09:54.808Z,85.78
2022-08-28T20:12:21.407Z,85.68
2022-08-28T20:14:48.040Z,86.37
2022-08-28T20:17:14.591Z,87.17
2022-08-28T20:19:41.413Z,87.15
2022-08-28T20:22:08.569Z,86.62
2022-08-28T20:24:35.389Z,86.22
2022-08-28T20:27:02.180Z,86.46
2022-08-28T20:29:29.265Z,86.69
2022-08-28T20:31:55.903Z,86.70
2022-08-28T20:34:23.262Z,87.18
2022-08-28T20:36:50.734Z,87.10
2022-08-28T20:39:18.080Z,87.02
2022-08-28T20:41:46.035Z,87.27
2022-08-28T20:44:15.490Z,87.52
2022-08-28T20:46:42.488Z,88.40
2022-08-28T20:49:10.697Z,88.29
2022-08-28T20:51:55.831Z,87.77
2022-08-28T20:54:26.440Z,87.71
2022-08-28T20:56:54.228Z,87.74
2022-08-28T20:59:21.640Z,87.92
2022-08-28T21:01:51.654Z,87.91
2022-08-28T21:04:18.733Z,87.76
2022-08-28T21:06:46.725Z,87.93
2022-08-28T21:09:17.516Z,87.99
2022-08-28T21:11:44.697Z,88.29
2022-08-28T21:14:11.441Z,88.27
2022-08-28T21:16:40.175Z,87.80
2022-08-28T21:19:15.800Z,87.98
2022-08-28T21:21:44.087Z,88.22
2022-08-28T21:24:12.640Z,88.05
2022-08-28T21:26:47.430Z,88.34
2022-08-28T21:29:15.131Z,88.70
2022-08-28T21:31:45.532Z,88.92
2022-08-28T21:34:12.525Z,89.29
2022-08-28T21:36:46.894Z,89.45
2022-08-28T21:39:17.097Z,90.07
2022-08-28T21:41:43.679Z,90.37
2022-08-28T21:44:10.237Z,90.92
2022-08-28T21:46:36.802Z,91.21
2022-08-28T21:49:04.033Z,91.43
2022-08-28T21:51:30.580Z,91.34
2022-08-28T21:53:57.269Z,91.37
2022-08-28T21:56:26.781Z,91.45
2022-08-28T21:58:55.630Z,91.41
2022-08-28T22:01:24.571Z,91.77
2022-08-28T22:03:51.140Z,92.49
2022-08-28T22:06:21.300Z,92.39
2022-08-28T22:08:48.690Z,92.73
2022-08-28T22:11:15.786Z,92.93
2022-08-28T22:13:48.233Z,93.51
2022-08-28T22:16:15.943Z,94.14
2022-08-28T22:18:42.787Z,94.32
2022-08-28T22:21:36.834Z,94.26
2022-08-28T22:24:04.527Z,94.33
2022-08-28T22:26:31.318Z,94.60
2022-08-28T22:28:58.359Z,94.91
2022-08-28T22:31:25.077Z,95.32
2022-08-28T22:33:52.549Z,95.64
2022-08-28T22:36:20.263Z,95.65
2022-08-28T22:38:53.052Z,95.60
2022-08-28T22:41:20.348Z,95.71
2022-08-28T22:43:51.161Z,95.16
2022-08-28T22:46:20.689Z,95.15
2022-08-28T22:48:48.065Z,95.05
2022-08-28T22:51:18.581Z,95.04
2022-08-28T22:53:45.857Z,95.06
2022-08-28T22:56:13.011Z,94.89
2022-08-28T22:58:40.175Z,95.08
2022-08-28T23:01:15.459Z,94.30
2022-08-28T23:03:42.319Z,94.11
2022-08-28T23:06:09.351Z,94.01
2022-08-28T23:08:35.945Z,93.80
2022-08-28T23:11:02.931Z,93.68
2022-08-28T23:13:30.697Z,93.96
2022-08-28T23:15:57.409Z,93.69
2022-08-28T23:18:24.179Z,93.36
2022-08-28T23:20:51.423Z,93.71
2022-08-28T23:23:19.208Z,92.97
2022-08-28T23:25:45.946Z,93.28
2022-08-28T23:28:12.909Z,93.49
2022-08-28T23:30:48.241Z,93.14
2022-08-28T23:33:23.544Z,93.32
2022-08-28T23:35:51.132Z,93.24
2022-08-28T23:38:17.845Z,93.15
2022-08-28T23:40:44.550Z,93.12
2022-08-28T23:43:12.021Z,92.94
2022-08-28T23:45:40.365Z,92.09
2022-08-28T23:48:07.942Z,92.38
2022-08-28T23:50:35.430Z,92.14
2022-08-28T23:53:04.299Z,91.98
2022-08-28T23:55:31.760Z,91.84
2022-08-28T23:58:00.485Z,92.08
